createdAt,value
2022-10-06T00:00:49.936Z,15.13
2022-10-06T00:03:17.653Z,15.11
2022-10-06T00:05:44.629Z,15.11
2022-10-06T00:08:11.655Z,15.10
2022-10-06T00:10:39.969Z,15.06
2022-10-06T00:13:07.219Z,14.98
2022-10-06T00:15:34.522Z,14.91
2022-10-06T00:18:02.386Z,14.90
2022-10-06T00:20:29.586Z,14.90
2022-10-06T00:22:57.171Z,14.88
2022-10-06T00:25:25.727Z,14.82
2022-10-06T00:27:53.406Z,14.82
2022-10-06T00:30:26.032Z,14.79
2022-10-06T00:33:00.853Z,14.82
2022-10-06T00:35:34.323Z,14.79
2022-10-06T00:38:02.086Z,14.86
2022-10-06T00:40:30.346Z,14.89
2022-10-06T00:43:04.990Z,14.89
2022-10-06T00:45:40.200Z,14.91
2022-10-06T00:48:15.486Z,14.93
2022-10-06T00:50:42.941Z,14.93
2022-10-06T00:53:11.429Z,14.93
2022-10-06T00:55:38.797Z,14.91
2022-10-06T00:58:07.593Z,14.89
2022-10-06T01:00:34.981Z,14.95
2022-10-06T01:03:49.650Z,14.98
2022-10-06T01:06:16.759Z,14.95
2022-10-06T01:08:43.977Z,14.97
2022-10-06T01:11:14.273Z,14.93
2022-10-06T01:13:44.329Z,14.95
2022-10-06T01:16:23.498Z,14.96
2022-10-06T01:18:53.419Z,14.97
2022-10-06T01:21:35.153Z,14.93
2022-10-06T01:24:03.606Z,14.94
2022-10-06T01:26:33.931Z,14.89
2022-10-06T01:29:01.337Z,14.86
2022-10-06T01:31:29.692Z,14.82
2022-10-06T01:33:57.432Z,14.76
2022-10-06T01:36:24.587Z,14.75
2022-10-06T01:38:52.171Z,14.67
2022-10-06T01:41:19.641Z,14.65
2022-10-06T01:43:47.029Z,14.64
2022-10-06T01:46:15.128Z,14.64
2022-10-06T01:48:42.195Z,14.61
2022-10-06T01:51:16.205Z,14.59
2022-10-06T01:53:43.303Z,14.58
2022-10-06T01:56:10.461Z,14.57
2022-10-06T01:58:38.037Z,14.59
2022-10-06T02:01:08.052Z,14.57
2022-10-06T02:03:40.697Z,14.56
2022-10-06T02:06:10.170Z,14.59
2022-10-06T02:08:37.810Z,14.59
2022-10-06T02:11:11.252Z,14.58
2022-10-06T02:13:41.783Z,14.57
2022-10-06T02:16:10.040Z,14.56
2022-10-06T02:18:37.183Z,14.55
2022-10-06T02:21:04.810Z,14.54
2022-10-06T02:23:32.342Z,14.50
2022-10-06T02:26:01.844Z,14.46
2022-10-06T02:28:31.164Z,14.43
2022-10-06T02:31:09.016Z,14.40
2022-10-06T02:33:38.461Z,14.40
2022-10-06T02:36:08.587Z,14.39
2022-10-06T02:38:35.850Z,14.37
2022-10-06T02:41:07.177Z,14.33
2022-10-06T02:43:35.832Z,14.33
2022-10-06T02:46:12.153Z,14.31
2022-10-06T02:48:43.163Z,14.32
2022-10-06T02:51:15.551Z,14.31
2022-10-06T02:53:45.959Z,14.29
2022-10-06T02:56:22.985Z,14.24
2022-10-06T02:58:51.903Z,14.20
2022-10-06T03:01:31.256Z,14.20
2022-10-06T03:04:02.560Z,14.15
2022-10-06T03:06:31.209Z,14.14
2022-10-06T03:09:19.190Z,14.12
2022-10-06T03:11:46.310Z,14.09
2022-10-06T03:14:21.856Z,14.11
2022-10-06T03:16:51.943Z,14.06
2022-10-06T03:19:25.848Z,14.10
2022-10-06T03:21:53.778Z,14.09
2022-10-06T03:24:23.944Z,14.06
2022-10-06T03:26:55.209Z,14.03
2022-10-06T03:29:22.218Z,14.05
2022-10-06T03:31:53.564Z,14.03
2022-10-06T03:34:20.658Z,14.05
2022-10-06T03:36:47.978Z,14.01
2022-10-06T03:39:18.671Z,14.03
2022-10-06T03:41:45.700Z,13.95
2022-10-06T03:44:12.696Z,13.95
2022-10-06T03:46:42.507Z,13.90
2022-10-06T03:49:10.791Z,13.88
2022-10-06T03:51:40.982Z,13.86
2022-10-06T03:54:12.834Z,13.88
2022-10-06T03:56:43.348Z,13.82
2022-10-06T03:59:17.388Z,13.85
2022-10-06T04:01:48.236Z,13.91
2022-10-06T04:04:23.656Z,13.91
2022-10-06T04:06:55.030Z,13.90
2022-10-06T04:09:22.957Z,13.90
2022-10-06T04:11:59.450Z,13.93
2022-10-06T04:14:26.576Z,13.92
2022-10-06T04:16:53.861Z,13.88
2022-10-06T04:19:25.411Z,13.84
2022-10-06T04:21:55.290Z,13.83
2022-10-06T04:24:24.570Z,13.84
2022-10-06T04:27:14.250Z,13.83
2022-10-06T04:29:42.062Z,13.79
2022-10-06T04:32:09.089Z,13.75
2022-10-06T04:34:37.913Z,13.66
2022-10-06T04:37:05.056Z,13.65
2022-10-06T04:39:34.719Z,13.63
2022-10-06T04:42:03.355Z,13.54
2022-10-06T04:44:31.691Z,13.52
2022-10-06T04:47:01.373Z,13.52
2022-10-06T04:49:28.592Z,13.50
2022-10-06T04:51:56.689Z,13.45
2022-10-06T04:54:24.123Z,13.45
2022-10-06T04:56:56.662Z,13.42
2022-10-06T04:59:45.575Z,13.37
2022-10-06T05:02:14.497Z,13.34
2022-10-06T05:04:42.820Z,13.32
2022-10-06T05:07:10.240Z,13.31
2022-10-06T05:09:37.403Z,13.25
2022-10-06T05:12:04.737Z,13.24
2022-10-06T05:14:33.396Z,13.22
2022-10-06T05:17:00.960Z,13.23
2022-10-06T05:19:29.418Z,13.22
2022-10-06T05:21:57.010Z,13.15
2022-10-06T05:24:27.161Z,13.13
2022-10-06T05:26:57.249Z,13.12
2022-10-06T05:29:26.869Z,13.11
2022-10-06T05:31:54.187Z,13.04
2022-10-06T05:34:22.049Z,13.05
2022-10-06T05:36:48.990Z,13.04
2022-10-06T05:39:16.054Z,13.01
2022-10-06T05:41:46.932Z,12.99
2022-10-06T05:44:14.764Z,12.97
2022-10-06T05:46:43.711Z,12.98
2022-10-06T05:49:12.828Z,12.98
2022-10-06T05:51:47.767Z,12.98
2022-10-06T05:54:22.344Z,12.96
2022-10-06T05:56:49.851Z,12.92
2022-10-06T05:59:16.960Z,12.97
2022-10-06T06:01:44.571Z,13.06
2022-10-06T06:04:31.953Z,13.15
2022-10-06T06:06:58.968Z,13.20
2022-10-06T06:09:28.736Z,13.23
2022-10-06T06:12:00.049Z,13.23
2022-10-06T06:15:09.203Z,13.28
2022-10-06T06:17:44.099Z,13.29
2022-10-06T06:20:12.137Z,13.30
2022-10-06T06:22:39.190Z,13.30
2022-10-06T06:25:07.725Z,13.34
2022-10-06T06:27:35.619Z,13.42
2022-10-06T06:30:03.675Z,13.50
2022-10-06T06:32:31.469Z,13.53
2022-10-06T06:34:59.037Z,13.57
2022-10-06T06:37:26.597Z,13.55
2022-10-06T06:39:54.653Z,13.60
2022-10-06T06:42:21.767Z,13.61
2022-10-06T06:44:48.972Z,13.64
2022-10-06T06:47:48.120Z,13.65
2022-10-06T06:50:17.219Z,13.74
2022-10-06T06:52:44.422Z,13.78
2022-10-06T06:55:14.604Z,13.79
2022-10-06T06:57:42.393Z,13.79
2022-10-06T07:00:10.223Z,13.84
2022-10-06T07:02:38.975Z,13.88
2022-10-06T07:05:06.909Z,13.94
2022-10-06T07:07:33.951Z,14.06
2022-10-06T07:10:01.274Z,14.16
2022-10-06T07:12:31.676Z,14.27
2022-10-06T07:15:18.451Z,14.31
2022-10-06T07:18:15.811Z,14.34
2022-10-06T07:21:01.569Z,14.38
2022-10-06T07:23:47.619Z,14.47
2022-10-06T07:26:17.945Z,14.59
2022-10-06T07:28:45.907Z,14.70
2022-10-06T07:31:19.236Z,14.80
2022-10-06T07:33:48.052Z,14.85
2022-10-06T07:36:16.672Z,14.86
2022-10-06T07:38:44.210Z,14.86
2022-10-06T07:41:19.707Z,14.88
2022-10-06T07:43:54.445Z,14.95
2022-10-06T07:46:22.640Z,14.99
2022-10-06T07:49:17.347Z,15.13
2022-10-06T07:51:45.573Z,15.29
2022-10-06T07:54:12.880Z,15.45
2022-10-06T07:57:05.877Z,15.46
2022-10-06T07:59:34.627Z,15.40
2022-10-06T08:02:01.692Z,15.39
2022-10-06T08:04:28.711Z,15.37
2022-10-06T08:06:57.739Z,15.40
2022-10-06T08:09:24.827Z,15.48
2022-10-06T08:11:52.948Z,15.56
2022-10-06T08:14:20.000Z,15.67
2022-10-06T08:16:46.957Z,15.72
2022-10-06T08:19:14.643Z,15.80
2022-10-06T08:21:41.615Z,15.89
2022-10-06T08:24:09.777Z,15.87
2022-10-06T08:26:36.805Z,15.95
2022-10-06T08:29:04.460Z,16.06
2022-10-06T08:31:32.359Z,16.23
2022-10-06T08:33:59.613Z,16.32
2022-10-06T08:36:31.953Z,16.26
2022-10-06T08:39:00.959Z,16.21
2022-10-06T08:41:44.823Z,16.27
2022-10-06T08:44:20.771Z,16.34
2022-10-06T08:47:13.744Z,16.25
2022-10-06T08:49:45.653Z,16.41
2022-10-06T08:52:27.463Z,16.72
2022-10-06T08:55:38.219Z,16.93
2022-10-06T08:58:34.263Z,17.10
2022-10-06T09:01:30.077Z,17.11
2022-10-06T09:04:05.159Z,17.01
2022-10-06T09:06:55.320Z,16.79
2022-10-06T09:09:43.122Z,16.76
2022-10-06T09:12:45.350Z,16.89
2022-10-06T09:15:44.844Z,16.92
2022-10-06T09:18:49.844Z,16.94
2022-10-06T09:21:40.550Z,17.04
2022-10-06T09:24:17.788Z,17.27
2022-10-06T09:26:48.660Z,17.48
2022-10-06T09:29:16.648Z,17.67
2022-10-06T09:31:50.487Z,17.86
2022-10-06T09:34:39.418Z,17.94
2022-10-06T09:37:11.081Z,17.84
2022-10-06T09:39:44.983Z,17.64
2022-10-06T09:42:34.163Z,17.56
2022-10-06T09:45:23.728Z,17.60
2022-10-06T09:47:50.709Z,17.77
2022-10-06T09:50:29.675Z,18.05
2022-10-06T09:53:03.352Z,18.28
2022-10-06T09:55:44.162Z,18.28
2022-10-06T09:58:26.680Z,18.40
2022-10-06T10:01:00.501Z,18.45
2022-10-06T10:06:40.454Z,18.47
2022-10-06T10:09:21.868Z,18.45
2022-10-06T10:12:24.430Z,18.50
2022-10-06T10:15:12.775Z,18.51
2022-10-06T10:17:48.284Z,18.76
2022-10-06T10:20:28.290Z,19.12
2022-10-06T10:23:06.022Z,19.18
2022-10-06T10:25:44.961Z,19.57
2022-10-06T10:28:17.236Z,19.84
2022-10-06T10:31:41.806Z,20.21
2022-10-06T10:34:33.405Z,20.47
2022-10-06T10:37:17.387Z,20.22
2022-10-06T10:39:54.182Z,20.09
2022-10-06T10:42:31.384Z,19.56
2022-10-06T10:45:04.265Z,19.23
2022-10-06T10:47:45.647Z,18.88
2022-10-06T10:50:43.810Z,19.05
2022-10-06T10:53:38.885Z,19.25
2022-10-06T10:56:12.146Z,19.30
2022-10-06T10:58:42.365Z,19.32
2022-10-06T11:01:34.033Z,19.21
2022-10-06T11:04:02.270Z,19.17
2022-10-06T11:07:09.155Z,19.21
2022-10-06T11:10:06.522Z,19.48
2022-10-06T11:12:51.178Z,19.75
2022-10-06T11:15:47.165Z,19.86
2022-10-06T11:18:32.074Z,19.92
2022-10-06T11:21:11.934Z,19.59
2022-10-06T11:23:50.912Z,19.55
2022-10-06T11:26:35.969Z,19.77
2022-10-06T11:29:22.989Z,20.28
2022-10-06T11:32:11.613Z,20.73
2022-10-06T11:34:39.395Z,20.94
2022-10-06T11:37:20.512Z,21.21
2022-10-06T11:39:50.233Z,21.19
2022-10-06T11:42:43.132Z,21.25
2022-10-06T11:45:16.642Z,21.17
2022-10-06T11:48:10.383Z,20.81
2022-10-06T11:50:42.681Z,20.51
2022-10-06T11:53:39.586Z,20.34
2022-10-06T11:56:18.647Z,20.42
2022-10-06T11:58:51.467Z,20.18
2022-10-06T12:01:50.589Z,20.30
2022-10-06T12:04:24.155Z,20.54
2022-10-06T12:06:57.076Z,20.69
2022-10-06T12:09:33.026Z,20.67
2022-10-06T12:12:14.895Z,20.72
2022-10-06T12:18:37.427Z,20.94
2022-10-06T12:21:33.082Z,20.86
2022-10-06T12:24:42.960Z,20.83
2022-10-06T12:27:26.576Z,20.80
2022-10-06T12:30:03.998Z,20.83
2022-10-06T12:32:56.493Z,20.95
2022-10-06T12:35:39.916Z,21.07
2022-10-06T12:38:35.646Z,21.30
2022-10-06T12:41:02.676Z,21.25
2022-10-06T12:43:33.150Z,21.33
2022-10-06T12:46:08.421Z,21.53
2022-10-06T12:48:44.011Z,21.51
2022-10-06T12:51:39.000Z,21.38
2022-10-06T12:54:21.817Z,21.39
2022-10-06T12:57:28.545Z,21.54
2022-10-06T12:59:55.515Z,21.37
2022-10-06T13:02:27.390Z,21.49
2022-10-06T13:04:59.686Z,21.54
2022-10-06T13:07:29.488Z,21.63
2022-10-06T13:10:14.701Z,21.44
2022-10-06T13:12:50.067Z,21.58
2022-10-06T13:15:23.724Z,21.72
2022-10-06T13:18:12.007Z,21.88
2022-10-06T13:20:55.420Z,22.00
2022-10-06T13:23:25.940Z,22.04
2022-10-06T13:25:56.347Z,22.00
2022-10-06T13:28:43.561Z,21.85
2022-10-06T13:31:27.431Z,21.77
2022-10-06T13:34:13.046Z,21.94
2022-10-06T13:36:44.126Z,22.09
2022-10-06T13:39:14.261Z,22.13
2022-10-06T13:42:10.198Z,22.10
2022-10-06T13:44:40.078Z,22.15
2022-10-06T13:47:22.729Z,21.89
2022-10-06T13:50:19.747Z,21.78
2022-10-06T13:52:48.519Z,21.78
2022-10-06T13:55:29.646Z,21.89
2022-10-06T13:57:56.699Z,21.72
2022-10-06T14:00:28.538Z,21.72
2022-10-06T14:03:05.262Z,21.76
2022-10-06T14:05:40.539Z,21.94
2022-10-06T14:08:26.524Z,21.98
2022-10-06T14:11:01.363Z,22.06
2022-10-06T14:13:54.212Z,21.93
2022-10-06T14:16:26.534Z,21.86
2022-10-06T14:19:00.148Z,21.85
2022-10-06T14:21:36.618Z,21.98
2022-10-06T14:24:16.841Z,22.11
2022-10-06T14:26:45.947Z,21.96
2022-10-06T14:29:17.609Z,21.83
2022-10-06T14:31:45.671Z,21.58
2022-10-06T14:34:16.366Z,21.33
2022-10-06T14:36:51.522Z,21.20
2022-10-06T14:39:19.508Z,21.12
2022-10-06T14:41:46.782Z,21.23
2022-10-06T14:44:16.943Z,21.32
2022-10-06T14:46:48.031Z,21.26
2022-10-06T14:49:16.014Z,21.15
2022-10-06T14:51:44.476Z,20.93
2022-10-06T14:54:12.237Z,20.89
2022-10-06T14:56:40.749Z,20.85
2022-10-06T14:59:12.518Z,20.88
2022-10-06T15:01:42.810Z,20.86
2022-10-06T15:04:19.585Z,20.89
2022-10-06T15:07:05.771Z,21.02
2022-10-06T15:09:33.105Z,21.01
2022-10-06T15:12:00.789Z,20.90
2022-10-06T15:14:29.480Z,20.67
2022-10-06T15:17:01.178Z,20.60
2022-10-06T15:19:28.542Z,20.53
2022-10-06T15:21:59.116Z,20.36
2022-10-06T15:24:26.111Z,20.11
2022-10-06T15:27:11.768Z,20.03
2022-10-06T15:29:39.016Z,20.01
2022-10-06T15:32:12.669Z,19.91
2022-10-06T15:34:39.650Z,19.82
2022-10-06T15:37:09.573Z,19.71
2022-10-06T15:39:37.827Z,19.67
2022-10-06T15:42:05.969Z,19.56
2022-10-06T15:44:36.487Z,19.65
2022-10-06T15:47:05.962Z,19.68
2022-10-06T15:49:38.117Z,19.63
2022-10-06T15:52:07.372Z,19.58
2022-10-06T15:54:38.758Z,19.43
2022-10-06T15:57:09.542Z,19.32
2022-10-06T15:59:40.001Z,19.21
2022-10-06T16:02:14.805Z,19.22
2022-10-06T16:04:42.916Z,19.12
2022-10-06T16:07:18.594Z,18.92
2022-10-06T16:09:48.537Z,18.83
2022-10-06T16:12:19.639Z,18.69
2022-10-06T16:14:47.496Z,18.72
2022-10-06T16:17:15.158Z,18.68
2022-10-06T16:19:42.640Z,18.64
2022-10-06T16:22:13.593Z,18.63
2022-10-06T16:24:40.665Z,18.60
2022-10-06T16:27:12.749Z,18.53
2022-10-06T16:29:40.038Z,18.44
2022-10-06T16:32:07.003Z,18.38
2022-10-06T16:34:34.422Z,18.35
2022-10-06T16:37:01.346Z,18.25
2022-10-06T16:39:28.558Z,18.15
2022-10-06T16:41:55.728Z,18.09
2022-10-06T16:44:25.059Z,18.01
2022-10-06T16:46:52.076Z,17.92
2022-10-06T16:49:19.766Z,17.81
2022-10-06T16:51:46.739Z,17.71
2022-10-06T16:54:17.105Z,17.55
2022-10-06T16:56:53.865Z,17.43
2022-10-06T16:59:23.481Z,17.35
2022-10-06T17:01:50.932Z,17.31
2022-10-06T17:04:22.804Z,17.28
2022-10-06T17:06:55.699Z,17.23
2022-10-06T17:09:25.768Z,17.15
2022-10-06T17:11:56.450Z,17.10
2022-10-06T17:14:24.172Z,17.04
2022-10-06T17:16:53.722Z,16.98
2022-10-06T17:19:25.397Z,16.92
2022-10-06T17:21:58.234Z,16.86
2022-10-06T17:24:28.043Z,16.79
2022-10-06T17:26:56.642Z,16.73
2022-10-06T17:29:24.703Z,16.66
2022-10-06T17:31:56.219Z,16.60
2022-10-06T17:34:26.441Z,16.48
2022-10-06T17:36:55.060Z,16.51
2022-10-06T17:39:24.423Z,16.50
2022-10-06T17:41:53.490Z,16.43
2022-10-06T17:44:25.712Z,16.33
2022-10-06T17:46:57.965Z,16.25
2022-10-06T17:49:26.925Z,16.18
2022-10-06T17:51:55.212Z,16.10
2022-10-06T17:54:25.324Z,16.00
2022-10-06T17:56:55.728Z,15.94
2022-10-06T17:59:30.279Z,15.90
2022-10-06T18:02:01.055Z,15.83
2022-10-06T18:04:28.933Z,15.77
2022-10-06T18:06:57.024Z,15.70
2022-10-06T18:09:24.547Z,15.67
2022-10-06T18:11:56.203Z,15.64
2022-10-06T18:14:27.489Z,15.61
2022-10-06T18:17:00.836Z,15.54
2022-10-06T18:19:34.273Z,15.44
2022-10-06T18:22:10.792Z,15.26
2022-10-06T18:24:38.889Z,15.17
2022-10-06T18:27:07.863Z,15.06
2022-10-06T18:29:38.299Z,15.05
2022-10-06T18:36:12.234Z,14.97
2022-10-06T18:37:41.457Z,14.97
2022-10-06T18:40:09.966Z,14.93
2022-10-06T18:42:39.020Z,14.91
2022-10-06T18:45:26.266Z,14.87
2022-10-06T18:48:11.821Z,14.82
2022-10-06T18:50:39.538Z,14.78
2022-10-06T18:53:06.932Z,14.68
2022-10-06T18:55:34.852Z,14.60
2022-10-06T18:58:02.053Z,14.57
2022-10-06T19:00:29.039Z,14.48
2022-10-06T19:02:56.774Z,14.37
2022-10-06T19:05:24.319Z,14.28
2022-10-06T19:07:53.699Z,14.22
2022-10-06T19:10:20.954Z,14.13
2022-10-06T19:12:48.439Z,14.09
2022-10-06T19:15:20.330Z,14.07
2022-10-06T19:17:49.577Z,14.03
2022-10-06T19:20:18.211Z,13.97
2022-10-06T19:22:46.045Z,13.88
2022-10-06T19:25:14.675Z,13.85
2022-10-06T19:27:41.898Z,13.76
2022-10-06T19:30:09.507Z,13.70
2022-10-06T19:32:37.181Z,13.69
2022-10-06T19:35:09.212Z,13.68
2022-10-06T19:37:37.236Z,13.63
2022-10-06T19:40:05.879Z,13.64
2022-10-06T19:42:48.765Z,13.56
2022-10-06T19:45:17.897Z,13.60
2022-10-06T19:47:46.205Z,13.58
2022-10-06T19:50:15.111Z,13.65
2022-10-06T19:52:42.547Z,13.62
2022-10-06T19:55:09.636Z,13.58
2022-10-06T19:57:37.123Z,13.51
2022-10-06T20:00:08.125Z,13.49
2022-10-06T20:02:43.219Z,13.48
2022-10-06T20:05:20.088Z,13.47
2022-10-06T20:07:47.728Z,13.44
2022-10-06T20:10:15.333Z,13.38
2022-10-06T20:12:42.392Z,13.40
2022-10-06T20:15:10.474Z,13.36
2022-10-06T20:17:37.971Z,13.45
2022-10-06T20:20:05.607Z,13.54
2022-10-06T20:22:32.808Z,13.62
2022-10-06T20:25:01.856Z,13.56
2022-10-06T20:27:29.032Z,13.42
2022-10-06T20:29:58.041Z,13.43
2022-10-06T20:32:25.159Z,13.37
2022-10-06T20:34:52.084Z,13.35
2022-10-06T20:37:19.115Z,13.28
2022-10-06T20:40:04.704Z,13.32
2022-10-06T20:42:31.731Z,13.27
2022-10-06T20:44:58.980Z,13.19
2022-10-06T20:47:25.946Z,13.11
2022-10-06T20:49:55.079Z,13.06
2022-10-06T20:52:24.308Z,13.09
2022-10-06T20:54:51.332Z,13.04
2022-10-06T20:57:18.640Z,13.05
2022-10-06T20:59:46.072Z,12.95
2022-10-06T21:02:13.532Z,12.86
2022-10-06T21:04:45.274Z,12.84
2022-10-06T21:07:12.412Z,12.83
2022-10-06T21:09:40.102Z,12.82
2022-10-06T21:12:07.395Z,12.73
2022-10-06T21:14:37.638Z,12.70
2022-10-06T21:17:06.884Z,12.63
2022-10-06T21:19:38.064Z,12.65
2022-10-06T21:22:05.914Z,12.64
2022-10-06T21:24:33.144Z,12.49
2022-10-06T21:27:00.434Z,12.47
2022-10-06T21:29:27.591Z,12.43
2022-10-06T21:31:55.457Z,12.44
2022-10-06T21:34:22.568Z,12.37
2022-10-06T21:36:49.679Z,12.35
2022-10-06T21:39:16.742Z,12.26
2022-10-06T21:41:43.897Z,12.29
2022-10-06T21:44:19.027Z,12.22
2022-10-06T21:46:48.256Z,12.27
2022-10-06T21:49:19.270Z,12.18
2022-10-06T21:51:49.675Z,12.18
2022-10-06T21:54:17.311Z,12.13
2022-10-06T21:56:45.579Z,12.10
2022-10-06T21:59:13.209Z,12.16
2022-10-06T22:01:43.507Z,12.16
2022-10-06T22:04:14.586Z,12.28
2022-10-06T22:06:43.359Z,12.28
2022-10-06T22:09:15.533Z,12.22
2022-10-06T22:11:43.578Z,12.12
2022-10-06T22:14:15.018Z,12.10
2022-10-06T22:16:43.073Z,12.03
2022-10-06T22:19:12.771Z,11.85
2022-10-06T22:21:44.214Z,11.83
2022-10-06T22:24:15.964Z,11.76
2022-10-06T22:26:44.342Z,11.74
2022-10-06T22:29:15.095Z,11.74
2022-10-06T22:31:45.276Z,11.63
2022-10-06T22:34:16.987Z,11.66
2022-10-06T22:36:44.112Z,11.62
2022-10-06T22:39:11.491Z,11.51
2022-10-06T22:41:38.871Z,11.51
2022-10-06T22:44:06.174Z,11.43
2022-10-06T22:46:35.856Z,11.43
2022-10-06T22:49:04.298Z,11.34
2022-10-06T22:51:31.615Z,11.34
2022-10-06T22:54:00.443Z,11.35
2022-10-06T22:56:29.863Z,11.31
2022-10-06T22:58:59.896Z,11.21
2022-10-06T23:01:29.253Z,11.19
2022-10-06T23:03:57.134Z,11.19
2022-10-06T23:06:24.721Z,11.10
2022-10-06T23:08:52.305Z,11.10
2022-10-06T23:11:21.615Z,10.96
2022-10-06T23:13:50.476Z,10.90
2022-10-06T23:16:19.719Z,10.89
2022-10-06T23:18:47.914Z,10.86
2022-10-06T23:21:22.392Z,10.86
2022-10-06T23:23:53.004Z,10.84
2022-10-06T23:26:22.237Z,10.79
2022-10-06T23:28:56.525Z,10.69
2022-10-06T23:31:28.478Z,10.69
2022-10-06T23:33:56.066Z,10.67
2022-10-06T23:36:23.112Z,10.65
2022-10-06T23:38:50.650Z,10.69
2022-10-06T23:41:18.249Z,10.72
2022-10-06T23:43:45.574Z,10.74
2022-10-06T23:46:13.455Z,10.78
2022-10-06T23:48:41.135Z,10.81
2022-10-06T23:51:11.903Z,10.75
2022-10-06T23:53:39.712Z,10.79
2022-10-06T23:56:08.182Z,10.80
2022-10-06T23:58:35.677Z,10.84
